Aérodrome :
LOGIN :

S'inscrire | Disclaimer

   EN    FR    IT 

 










Légende :    VFR   VFR Marginal   IFR   IFR Intensif   IFR Très Intensif
Visi : 
Plafond : 
>= 8 km
>= 3000ft
5 à 8 km
1000 à 3000 ft
1500m à 5 km
500 à 1000 ft
800 à 1500m
200 à 500 ft
< 800m
< 200 ft
Symboles :   Orages  Brouillard  Fortes neiges  Fortes précipitations  Vent > 20 kt
SIGMETs :   Divers  Orages  Givrage  Turbulence  Onde Orograph.  Cendres Volcan.







- Altitude de l'aérodrome : 388 ft
- Code IATA : QYR
- Voir les cartes d'approche


LFQB - Troyes Barberey

DERNIER METAR :
  • 221000Z AUTO 16011KT 5000 BR OVC010 M01/M03 Q1010

METARs EXPIRÉS :
  • 220930Z AUTO 18012KT 5000 BR OVC009 M02/M03 Q1010
  • 220900Z AUTO 15008KT 7000 OVC011 M02/M04 Q1010
  • 220830Z AUTO 16009KT 8000 BKN013 BKN210 M02/M04 Q1011
  • 220800Z AUTO 15009KT 8000 OVC013 M03/M04 Q1011
  • 220730Z AUTO 15009KT 8000 BKN013 BKN220 M03/M05 Q1012
  • 220700Z AUTO 16011KT 8000 NSC M03/M05 Q1012

TAF N/A
Pas de NOTAMs connus pour ce terrain.



MET'MAP, la Météo Aéronautique d'un coup d'oeil ! - Copyright ORBIFLY Décembre 2007 - Disclaimer

ORBIFLY MET'MAP TEAM :

Programmation & Développement : Alexandra Zaïnal
Conception & Développement : Baudouin d'Aumeries
Co-Programmation & Développement : Marc-Olivier Méhu
Soutien technique & logistique : Manuel Goepfert

Contact : metmap@orbifly.com




SOURCES & CREDITS :

   NOAA